createdAt,value
2018-03-20T00:01:32.588Z,98064
2018-03-20T00:04:00.947Z,98073
2018-03-20T00:06:30.024Z,98064
2018-03-20T00:08:57.625Z,98076
2018-03-20T00:11:26.090Z,98062
2018-03-20T00:13:53.672Z,98061
2018-03-20T00:16:22.057Z,98052
2018-03-20T00:18:50.440Z,98060
2018-03-20T00:21:18.803Z,98058
2018-03-20T00:23:47.294Z,98063
2018-03-20T00:26:15.754Z,98055
2018-03-20T00:28:43.339Z,98057
2018-03-20T00:31:11.711Z,98062
2018-03-20T00:33:40.061Z,98057
2018-03-20T00:36:07.628Z,98065
2018-03-20T00:38:35.223Z,98062
2018-03-20T00:41:03.572Z,98070
2018-03-20T00:43:31.142Z,98070
2018-03-20T00:45:58.810Z,98067
2018-03-20T00:48:27.161Z,98065
2018-03-20T00:50:54.855Z,98072
2018-03-20T00:53:23.752Z,98065
2018-03-20T00:55:52.100Z,98066
2018-03-20T00:58:19.688Z,98067
2018-03-20T01:00:48.073Z,98064
2018-03-20T01:03:16.544Z,98068
2018-03-20T01:05:44.212Z,98074
2018-03-20T01:08:12.597Z,98077
2018-03-20T01:10:40.938Z,98073
2018-03-20T01:13:08.538Z,98078
2018-03-20T01:15:36.914Z,98073
2018-03-20T01:18:05.251Z,98077
2018-03-20T01:20:32.828Z,98079
2018-03-20T01:23:00.405Z,98090
2018-03-20T01:25:28.074Z,98081
2018-03-20T01:27:56.415Z,98076
2018-03-20T01:30:24.008Z,98078
2018-03-20T01:32:51.581Z,98086
2018-03-20T01:35:19.943Z,98071
2018-03-20T01:37:47.626Z,98068
2018-03-20T01:40:16.186Z,98075
2018-03-20T01:42:43.867Z,98075
2018-03-20T01:45:12.207Z,98086
2018-03-20T01:47:39.778Z,98075
2018-03-20T01:50:07.353Z,98080
2018-03-20T01:52:34.921Z,98078
2018-03-20T01:55:02.595Z,98082
2018-03-20T01:57:30.944Z,98077
2018-03-20T01:59:58.528Z,98070
2018-03-20T02:02:26.101Z,98079
2018-03-20T02:04:54.485Z,98077
2018-03-20T02:07:22.820Z,98067
2018-03-20T02:09:50.408Z,98069
2018-03-20T02:12:18.760Z,98068
2018-03-20T02:14:46.652Z,98076
2018-03-20T02:17:14.336Z,98070
2018-03-20T02:19:42.697Z,98059
2018-03-20T02:22:10.285Z,98079
2018-03-20T02:24:37.870Z,98066
2018-03-20T02:27:05.485Z,98070
2018-03-20T02:29:33.874Z,98067
2018-03-20T02:32:02.230Z,98071
2018-03-20T02:34:29.850Z,98071
2018-03-20T02:36:57.426Z,98080
2018-03-20T02:39:25.045Z,98069
2018-03-20T02:41:52.621Z,98077
2018-03-20T02:44:20.262Z,98074
2018-03-20T02:46:48.642Z,98068
2018-03-20T02:49:17.213Z,98080
2018-03-20T02:51:45.924Z,98081
2018-03-20T02:54:14.391Z,98081
2018-03-20T02:56:42.731Z,98075
2018-03-20T02:59:10.338Z,98070
2018-03-20T03:01:38.688Z,98075
2018-03-20T03:04:06.371Z,98077
2018-03-20T03:06:34.705Z,98076
2018-03-20T03:09:02.294Z,98087
2018-03-20T03:11:29.883Z,98069
2018-03-20T03:13:58.250Z,98074
2018-03-20T03:16:26.642Z,98068
2018-03-20T03:18:54.239Z,98073
2018-03-20T03:21:21.864Z,98077
2018-03-20T03:23:50.321Z,98080
2018-03-20T03:26:17.975Z,98087
2018-03-20T03:28:45.961Z,98093
2018-03-20T03:31:13.549Z,98074
2018-03-20T03:33:41.198Z,98081
2018-03-20T03:36:09.683Z,98075
2018-03-20T03:38:38.054Z,98078
2018-03-20T03:41:06.452Z,98083
2018-03-20T03:43:34.791Z,98093
2018-03-20T03:46:02.368Z,98088
2018-03-20T03:48:30.052Z,98087
2018-03-20T03:50:58.427Z,98098
2018-03-20T03:53:26.797Z,98096
2018-03-20T03:55:55.195Z,98094
2018-03-20T03:58:22.773Z,98102
2018-03-20T04:00:50.342Z,98094
2018-03-20T04:03:17.954Z,98103
2018-03-20T04:05:45.820Z,98109
2018-03-20T04:08:14.176Z,98109
2018-03-20T04:10:41.746Z,98111
2018-03-20T04:13:09.308Z,98120
2018-03-20T04:15:36.867Z,98118
2018-03-20T04:18:04.435Z,98114
2018-03-20T04:20:32.003Z,98122
2018-03-20T04:22:59.562Z,98117
2018-03-20T04:25:27.888Z,98121
2018-03-20T04:27:55.451Z,98133
2018-03-20T04:30:23.779Z,98130
2018-03-20T04:32:51.363Z,98132
2018-03-20T04:35:18.922Z,98117
2018-03-20T04:37:47.249Z,98126
2018-03-20T04:40:14.809Z,98121
2018-03-20T04:42:43.960Z,98121
2018-03-20T04:45:11.520Z,98125
2018-03-20T04:47:39.879Z,98122
2018-03-20T04:50:07.443Z,98125
2018-03-20T04:52:35.040Z,98128
2018-03-20T04:55:02.599Z,98126
2018-03-20T04:57:30.964Z,98127
2018-03-20T04:59:58.523Z,98131
2018-03-20T05:02:26.080Z,98131
2018-03-20T05:04:53.704Z,98132
2018-03-20T05:07:21.261Z,98141
2018-03-20T05:09:48.818Z,98142
2018-03-20T05:12:17.148Z,98144
2018-03-20T05:14:44.720Z,98140
2018-03-20T05:17:12.636Z,98150
2018-03-20T05:22:56.151Z,98154
2018-03-20T05:25:23.723Z,98155
2018-03-20T05:27:51.307Z,98156
2018-03-20T05:30:18.889Z,98147
2018-03-20T05:32:46.469Z,98149
2018-03-20T05:35:14.802Z,98156
2018-03-20T05:37:42.623Z,98156
2018-03-20T05:40:10.965Z,98159
2018-03-20T05:42:38.549Z,98155
2018-03-20T05:45:07.033Z,98157
2018-03-20T05:47:41.164Z,98173
2018-03-20T05:50:14.424Z,98169
2018-03-20T05:52:42.038Z,98159
2018-03-20T05:55:09.699Z,98165
2018-03-20T05:57:37.326Z,98176
2018-03-20T06:00:05.705Z,98174
2018-03-20T06:02:34.044Z,98181
2018-03-20T06:05:01.647Z,98179
2018-03-20T06:07:30.025Z,98179
2018-03-20T06:09:58.493Z,98188
2018-03-20T06:12:26.172Z,98186
2018-03-20T06:14:54.525Z,98184
2018-03-20T06:17:22.110Z,98190
2018-03-20T06:19:50.498Z,98190
2018-03-20T06:22:18.877Z,98183
2018-03-20T06:24:47.258Z,98198
2018-03-20T06:27:15.605Z,98201
2018-03-20T06:29:43.400Z,98190
2018-03-20T06:32:11.741Z,98192
2018-03-20T06:34:39.335Z,98204
2018-03-20T06:37:07.724Z,98206
2018-03-20T06:39:36.057Z,98199
2018-03-20T06:42:03.655Z,98195
2018-03-20T06:44:32.001Z,98193
2018-03-20T06:46:59.589Z,98196
2018-03-20T06:49:27.950Z,98197
2018-03-20T06:51:55.633Z,98193
2018-03-20T06:54:23.209Z,98198
2018-03-20T06:56:51.553Z,98188
2018-03-20T06:59:19.245Z,98191
2018-03-20T07:01:47.584Z,98195
2018-03-20T07:04:15.163Z,98188
2018-03-20T07:06:43.169Z,98202
2018-03-20T07:09:10.745Z,98196
2018-03-20T07:11:38.310Z,98203
2018-03-20T07:14:05.888Z,98202
2018-03-20T07:16:33.462Z,98210
2018-03-20T07:19:01.044Z,98204
2018-03-20T07:21:28.628Z,98205
2018-03-20T07:23:57.014Z,98204
2018-03-20T07:26:25.378Z,98207
2018-03-20T07:28:53.713Z,98212
2018-03-20T07:31:21.323Z,98213
2018-03-20T07:33:49.660Z,98223
2018-03-20T07:36:17.256Z,98215
2018-03-20T07:38:45.625Z,98219
2018-03-20T07:41:13.496Z,98220
2018-03-20T07:43:41.162Z,98222
2018-03-20T07:46:09.517Z,98221
2018-03-20T07:48:37.106Z,98226
2018-03-20T07:51:05.485Z,98229
2018-03-20T07:53:33.828Z,98227
2018-03-20T07:56:01.397Z,98227
2018-03-20T07:58:28.965Z,98218
2018-03-20T08:00:56.565Z,98218
2018-03-20T08:03:24.896Z,98230
2018-03-20T08:05:52.470Z,98230
2018-03-20T08:08:20.044Z,98224
2018-03-20T08:10:47.623Z,98218
2018-03-20T08:13:15.988Z,98224
2018-03-20T08:15:44.383Z,98210
2018-03-20T08:18:13.740Z,98228
2018-03-20T08:20:41.310Z,98210
2018-03-20T08:23:08.896Z,98215
2018-03-20T08:25:37.277Z,98212
2018-03-20T08:28:05.628Z,98219
2018-03-20T08:30:33.315Z,98208
2018-03-20T08:33:01.693Z,98213
2018-03-20T08:35:29.272Z,98218
2018-03-20T08:37:57.614Z,98211
2018-03-20T08:40:25.301Z,98217
2018-03-20T08:42:53.649Z,98219
2018-03-20T08:45:21.231Z,98218
2018-03-20T08:47:48.919Z,98228
2018-03-20T08:50:17.290Z,98228
2018-03-20T08:52:45.645Z,98222
2018-03-20T08:55:13.499Z,98215
2018-03-20T08:57:41.102Z,98230
2018-03-20T09:00:09.468Z,98234
2018-03-20T09:02:37.130Z,98240
2018-03-20T09:05:04.703Z,98231
2018-03-20T09:07:33.051Z,98237
2018-03-20T09:10:00.848Z,98239
2018-03-20T09:12:29.245Z,98229
2018-03-20T09:14:56.878Z,98224
2018-03-20T09:17:25.236Z,98236
2018-03-20T09:19:52.964Z,98234
2018-03-20T09:22:20.594Z,98239
2018-03-20T09:24:48.961Z,98224
2018-03-20T09:27:16.641Z,98238
2018-03-20T09:29:44.983Z,98233
2018-03-20T09:32:13.098Z,98229
2018-03-20T09:34:41.455Z,98234
2018-03-20T09:37:09.028Z,98233
2018-03-20T09:39:37.398Z,98232
2018-03-20T09:42:04.978Z,98231
2018-03-20T09:44:33.347Z,98246
2018-03-20T09:47:01.698Z,98245
2018-03-20T09:49:29.281Z,98243
2018-03-20T09:51:57.678Z,98244
2018-03-20T09:54:25.263Z,98245
2018-03-20T09:56:52.880Z,98260
2018-03-20T09:59:20.658Z,98266
2018-03-20T10:01:49.046Z,98270
2018-03-20T10:04:17.414Z,98268
2018-03-20T10:06:45.761Z,98265
2018-03-20T10:09:13.524Z,98262
2018-03-20T10:11:41.117Z,98265
2018-03-20T10:14:09.519Z,98272
2018-03-20T10:16:37.092Z,98268
2018-03-20T10:19:04.679Z,98281
2018-03-20T10:21:32.284Z,98280
2018-03-20T10:24:00.639Z,98283
2018-03-20T10:26:28.224Z,98286
2018-03-20T10:28:56.575Z,98293
2018-03-20T10:31:24.178Z,98301
2018-03-20T10:33:52.539Z,98295
2018-03-20T10:36:20.914Z,98296
2018-03-20T10:38:48.495Z,98311
2018-03-20T10:41:18.602Z,98298
2018-03-20T10:43:48.950Z,98292
2018-03-20T10:46:17.320Z,98307
2018-03-20T10:48:45.667Z,98296
2018-03-20T10:51:14.575Z,98307
2018-03-20T10:53:43.159Z,98306
2018-03-20T10:56:10.822Z,98301
2018-03-20T10:58:38.486Z,98303
2018-03-20T11:01:06.835Z,98299
2018-03-20T11:03:34.432Z,98295
2018-03-20T11:06:02.827Z,98305
2018-03-20T11:08:30.404Z,98307
2018-03-20T11:10:58.036Z,98297
2018-03-20T11:13:26.376Z,98315
2018-03-20T11:15:53.958Z,98309
2018-03-20T11:18:21.640Z,98316
2018-03-20T11:20:50.022Z,98319
2018-03-20T11:23:18.395Z,98322
2018-03-20T11:25:46.780Z,98329
2018-03-20T11:28:15.130Z,98330
2018-03-20T11:30:43.144Z,98341
2018-03-20T11:33:10.850Z,98335
2018-03-20T11:35:38.403Z,98342
2018-03-20T11:38:05.972Z,98339
2018-03-20T11:40:33.543Z,98344
2018-03-20T11:43:01.113Z,98341
2018-03-20T11:45:28.681Z,98340
2018-03-20T11:47:56.366Z,98341
2018-03-20T11:50:24.754Z,98351
2018-03-20T11:52:53.096Z,98346
2018-03-20T11:55:20.678Z,98345
2018-03-20T11:57:49.066Z,98350
2018-03-20T12:00:17.440Z,98347
2018-03-20T12:02:45.782Z,98348
2018-03-20T12:05:13.455Z,98360
2018-03-20T12:07:52.887Z,98366
2018-03-20T12:10:20.469Z,98354
2018-03-20T12:12:48.035Z,98369
2018-03-20T12:15:15.620Z,98356
2018-03-20T12:17:44.259Z,98358
2018-03-20T12:20:11.846Z,98353
2018-03-20T12:22:40.198Z,98354
2018-03-20T12:25:07.792Z,98350
2018-03-20T12:27:36.172Z,98371
2018-03-20T12:30:04.562Z,98355
2018-03-20T12:32:32.898Z,98351
2018-03-20T12:35:00.493Z,98365
2018-03-20T12:37:28.833Z,98358
2018-03-20T12:39:56.414Z,98359
2018-03-20T12:42:24.086Z,98366
2018-03-20T12:44:51.674Z,98369
2018-03-20T12:47:19.269Z,98377
2018-03-20T12:49:46.882Z,98374
2018-03-20T12:52:15.227Z,98373
2018-03-20T12:54:43.913Z,98371
2018-03-20T12:57:11.502Z,98384
2018-03-20T12:59:39.842Z,98383
2018-03-20T13:02:07.440Z,98386
2018-03-20T13:04:35.878Z,98389
2018-03-20T13:07:04.190Z,98396
2018-03-20T13:09:31.877Z,98391
2018-03-20T13:12:00.236Z,98406
2018-03-20T13:14:27.953Z,98394
2018-03-20T13:16:55.571Z,98398
2018-03-20T13:19:23.946Z,98409
2018-03-20T13:21:51.521Z,98403
2018-03-20T13:24:19.889Z,98411
2018-03-20T13:26:48.269Z,98412
2018-03-20T13:29:16.610Z,98405
2018-03-20T13:31:44.388Z,98409
2018-03-20T13:34:11.983Z,98412
2018-03-20T13:36:40.327Z,98412
2018-03-20T13:39:07.920Z,98421
2018-03-20T13:41:36.253Z,98418
2018-03-20T13:44:03.823Z,98421
2018-03-20T13:46:31.546Z,98421
2018-03-20T13:48:59.182Z,98423
2018-03-20T13:51:27.517Z,98422
2018-03-20T13:53:55.092Z,98421
2018-03-20T13:56:22.665Z,98427
2018-03-20T13:58:50.232Z,98426
2018-03-20T14:01:17.804Z,98426
2018-03-20T14:03:46.136Z,98425
2018-03-20T14:06:13.956Z,98424
2018-03-20T14:08:43.068Z,98433
2018-03-20T14:11:10.730Z,98434
2018-03-20T14:13:38.382Z,98432
2018-03-20T14:16:06.718Z,98435
2018-03-20T14:18:34.293Z,98446
2018-03-20T14:21:01.886Z,98446
2018-03-20T14:23:29.473Z,98452
2018-03-20T14:25:57.056Z,98462
2018-03-20T14:28:24.625Z,98474
2018-03-20T14:30:52.646Z,98457
2018-03-20T14:33:20.990Z,98477
2018-03-20T14:35:50.073Z,98476
2018-03-20T14:38:17.667Z,98471
2018-03-20T14:40:46.074Z,98481
2018-03-20T14:43:13.672Z,98486
2018-03-20T14:45:41.321Z,98494
2018-03-20T14:48:08.905Z,98493
2018-03-20T14:50:36.622Z,98498
2018-03-20T14:53:04.205Z,98493
2018-03-20T14:55:31.785Z,98503
2018-03-20T14:57:59.382Z,98505
2018-03-20T15:00:27.851Z,98500
2018-03-20T15:02:55.523Z,98511
2018-03-20T15:05:23.898Z,98504
2018-03-20T15:07:52.299Z,98523
2018-03-20T15:10:20.065Z,98526
2018-03-20T15:12:48.420Z,98522
2018-03-20T15:15:16.085Z,98519
2018-03-20T15:17:43.974Z,98530
2018-03-20T15:20:11.624Z,98528
2018-03-20T15:22:40.002Z,98536
2018-03-20T15:25:08.381Z,98541
2018-03-20T15:27:36.758Z,98534
2018-03-20T15:30:04.342Z,98537
2018-03-20T15:32:31.919Z,98540
2018-03-20T15:34:59.490Z,98551
2018-03-20T15:37:27.117Z,98567
2018-03-20T15:39:55.454Z,98559
2018-03-20T15:42:23.049Z,98572
2018-03-20T15:44:51.428Z,98569
2018-03-20T15:47:19.811Z,98563
2018-03-20T15:49:47.425Z,98566
2018-03-20T15:52:15.518Z,98567
2018-03-20T15:54:43.309Z,98561
2018-03-20T15:57:11.706Z,98570
2018-03-20T15:59:39.559Z,98571
2018-03-20T16:02:08.115Z,98575
2018-03-20T16:04:35.795Z,98579
2018-03-20T16:07:04.194Z,98591
2018-03-20T16:09:32.168Z,98594
2018-03-20T16:11:59.774Z,98596
2018-03-20T16:14:27.365Z,98598
2018-03-20T16:16:55.444Z,98598
2018-03-20T16:19:23.797Z,98615
2018-03-20T16:21:51.471Z,98602
2018-03-20T16:24:19.149Z,98617
2018-03-20T16:26:46.833Z,98623
2018-03-20T16:29:15.327Z,98631
2018-03-20T16:31:43.534Z,98638
2018-03-20T16:34:11.971Z,98629
2018-03-20T16:36:39.730Z,98637
2018-03-20T16:39:08.183Z,98642
2018-03-20T16:41:35.826Z,98644
2018-03-20T16:44:03.567Z,98651
2018-03-20T16:46:37.775Z,98659
2018-03-20T16:49:05.528Z,98660
2018-03-20T16:51:33.158Z,98661
2018-03-20T16:54:00.832Z,98676
2018-03-20T16:56:29.226Z,98668
2018-03-20T16:58:57.102Z,98679
2018-03-20T17:01:24.783Z,98678
2018-03-20T17:03:52.376Z,98687
2018-03-20T17:06:20.085Z,98690
2018-03-20T17:08:48.441Z,98699
2018-03-20T17:11:16.050Z,98718
2018-03-20T17:13:44.893Z,98724
2018-03-20T17:16:13.011Z,98722
2018-03-20T17:18:40.643Z,98721
2018-03-20T17:21:08.997Z,98741
2018-03-20T17:23:36.885Z,98740
2018-03-20T17:26:05.278Z,98748
2018-03-20T17:28:33.782Z,98758
2018-03-20T17:31:01.584Z,98750
2018-03-20T17:33:29.869Z,98772
2018-03-20T17:35:57.565Z,98775
2018-03-20T17:38:25.911Z,98778
2018-03-20T17:40:53.484Z,98782
2018-03-20T17:43:21.163Z,98784
2018-03-20T17:45:49.565Z,98802
2018-03-20T17:48:18.345Z,98802
2018-03-20T17:50:46.114Z,98811
2018-03-20T17:53:14.688Z,98824
2018-03-20T17:55:42.560Z,98822
2018-03-20T17:58:10.212Z,98829
2018-03-20T18:00:38.571Z,98831
2018-03-20T18:03:06.169Z,98846
2018-03-20T18:05:33.973Z,98846
2018-03-20T18:08:05.201Z,98846
2018-03-20T18:10:38.791Z,98855
2018-03-20T18:13:06.513Z,98857
2018-03-20T18:15:34.099Z,98864
2018-03-20T18:18:04.248Z,98871
2018-03-20T18:20:31.850Z,98877
2018-03-20T18:23:00.375Z,98879
2018-03-20T18:25:27.985Z,98887
2018-03-20T18:27:55.692Z,98890
2018-03-20T18:30:24.076Z,98894
2018-03-20T18:32:52.561Z,98905
2018-03-20T18:35:20.920Z,98901
2018-03-20T18:37:49.421Z,98917
2018-03-20T18:40:17.808Z,98918
2018-03-20T18:42:45.454Z,98919
2018-03-20T18:45:13.968Z,98922
2018-03-20T18:47:41.562Z,98925
2018-03-20T18:50:09.260Z,98939
2018-03-20T18:52:37.691Z,98941
2018-03-20T18:55:05.385Z,98948
2018-03-20T18:57:33.801Z,98958
2018-03-20T19:00:02.177Z,98948
2018-03-20T19:02:30.772Z,98954
2018-03-20T19:04:58.555Z,98959
2018-03-20T19:07:26.133Z,98968
2018-03-20T19:09:53.749Z,98973
2018-03-20T19:12:22.123Z,98972
2018-03-20T19:14:50.508Z,98982
2018-03-20T19:17:18.861Z,98984
2018-03-20T19:19:46.649Z,98996
2018-03-20T19:22:15.003Z,98997
2018-03-20T19:24:42.703Z,99011
2018-03-20T19:27:11.062Z,99009
2018-03-20T19:29:38.636Z,99008
2018-03-20T19:32:06.273Z,98999
2018-03-20T19:34:33.876Z,99010
2018-03-20T19:37:01.453Z,99025
2018-03-20T19:39:29.221Z,99021
2018-03-20T19:41:56.899Z,99029
2018-03-20T19:44:24.617Z,99025
2018-03-20T19:46:52.991Z,99033
2018-03-20T19:49:21.329Z,99039
2018-03-20T19:51:48.936Z,99039
2018-03-20T19:54:17.279Z,99043
2018-03-20T19:56:44.865Z,99050
2018-03-20T19:59:13.435Z,99055
2018-03-20T20:01:41.234Z,99044
2018-03-20T20:04:08.859Z,99054
2018-03-20T20:06:37.198Z,99057
2018-03-20T20:09:04.788Z,99061
2018-03-20T20:11:32.377Z,99075
2018-03-20T20:14:00.767Z,99079
2018-03-20T20:16:29.151Z,99076
2018-03-20T20:18:57.517Z,99069
2018-03-20T20:21:25.172Z,99071
2018-03-20T20:23:52.796Z,99086
2018-03-20T20:26:20.410Z,99075
2018-03-20T20:28:48.788Z,99076
2018-03-20T20:31:17.166Z,99080
2018-03-20T20:33:45.519Z,99081
2018-03-20T20:36:13.342Z,99087
2018-03-20T20:38:40.958Z,99090
2018-03-20T20:41:08.545Z,99086
2018-03-20T20:43:36.912Z,99086
2018-03-20T20:46:05.272Z,99093
2018-03-20T20:48:32.961Z,99092
2018-03-20T20:51:01.353Z,99098
2018-03-20T20:53:28.941Z,99097
2018-03-20T20:55:57.521Z,99099
2018-03-20T20:58:25.101Z,99087
2018-03-20T21:00:52.708Z,99094
2018-03-20T21:03:21.053Z,99094
2018-03-20T21:05:48.629Z,99090
2018-03-20T21:08:16.217Z,99091
2018-03-20T21:10:44.581Z,99090
2018-03-20T21:13:12.176Z,99105
2018-03-20T21:15:39.764Z,99104
2018-03-20T21:18:07.334Z,99114
2018-03-20T21:20:34.964Z,99117
2018-03-20T21:23:02.551Z,99117
2018-03-20T21:25:30.120Z,99126
2018-03-20T21:27:57.766Z,99116
2018-03-20T21:30:26.262Z,99117
2018-03-20T21:32:53.878Z,99117
2018-03-20T21:35:22.238Z,99131
2018-03-20T21:37:49.817Z,99119
2018-03-20T21:40:18.190Z,99129
2018-03-20T21:42:46.529Z,99136
2018-03-20T21:45:14.356Z,99128
2018-03-20T21:47:41.994Z,99133
2018-03-20T21:50:10.339Z,99117
2018-03-20T21:52:37.911Z,99121
2018-03-20T21:55:05.500Z,99126
2018-03-20T21:57:34.078Z,99137
2018-03-20T22:00:02.457Z,99134
2018-03-20T22:02:30.801Z,99137
2018-03-20T22:04:58.379Z,99138
2018-03-20T22:07:25.974Z,99144
2018-03-20T22:09:54.336Z,99146
2018-03-20T22:12:22.690Z,99148
2018-03-20T22:14:50.385Z,99148
2018-03-20T22:17:18.758Z,99150
2018-03-20T22:19:47.148Z,99158
2018-03-20T22:22:15.503Z,99160
2018-03-20T22:24:43.165Z,99162
2018-03-20T22:27:10.772Z,99167
2018-03-20T22:29:38.347Z,99173
2018-03-20T22:32:05.961Z,99175
2018-03-20T22:34:33.638Z,99166
2018-03-20T22:37:01.990Z,99177
2018-03-20T22:39:29.570Z,99183
2018-03-20T22:41:57.962Z,99182
2018-03-20T22:44:25.770Z,99175
2018-03-20T22:46:53.350Z,99189
2018-03-20T22:49:20.924Z,99198
2018-03-20T22:51:48.495Z,99193
2018-03-20T22:54:16.160Z,99193
2018-03-20T22:56:44.750Z,99196
2018-03-20T22:59:13.238Z,99198
2018-03-20T23:01:41.613Z,99209
2018-03-20T23:04:09.966Z,99212
2018-03-20T23:06:37.658Z,99214
2018-03-20T23:09:05.996Z,99207
2018-03-20T23:11:33.578Z,99201
2018-03-20T23:14:01.254Z,99206
2018-03-20T23:16:29.660Z,99207
2018-03-20T23:18:57.232Z,99201
2018-03-20T23:21:24.856Z,99205
2018-03-20T23:23:53.196Z,99210
2018-03-20T23:26:20.798Z,99207
2018-03-20T23:28:49.182Z,99212
2018-03-20T23:31:17.521Z,99211
2018-03-20T23:33:45.121Z,99209
2018-03-20T23:36:13.562Z,99212
2018-03-20T23:38:41.150Z,99225
2018-03-20T23:41:08.727Z,99227
2018-03-20T23:43:37.105Z,99235
2018-03-20T23:46:05.445Z,99233
2018-03-20T23:48:33.146Z,99232
2018-03-20T23:51:01.489Z,99238
2018-03-20T23:53:29.080Z,99236
2018-03-20T23:55:56.652Z,99238
2018-03-20T23:58:25.020Z,99236
